Terminal Aerodrome Forecast
Issued by NWS

Home | Current Version | Previous Version | Text Only | Print | Product List | Glossary On
Versions: 1 2 3 4 5 6 7 8 9 10 11 12 13 14 15 16 17 18 19 20 21 22 23 24 25 26
189
FTUS43 KLOT 300520
TAFDPA
TAF
KDPA 300520Z 3006/0106 05016G23KT 3SM -DZRA BR SCT003 OVC006
     FM301000 06013G19KT 4SM -SHRA BR SCT003 OVC006 PROB30 3019/3023
      3SM TSRA OVC008CB
     FM302300 15008KT 6SM -SHRA BR OVC008 PROB30 3023/0103 3SM TSRA
      OVC008CB=

USA.gov is the U.S. government's official web portal to all federal, state and local government web resources and services.